createdAt,value
2018-10-21T00:02:24.789Z,25.47
2018-10-21T00:04:52.986Z,28.40
2018-10-21T00:07:21.562Z,23.17
2018-10-21T00:09:49.746Z,25.00
2018-10-21T00:12:17.973Z,27.63
2018-10-21T00:14:46.193Z,26.47
2018-10-21T00:17:14.404Z,26.23
2018-10-21T00:19:42.617Z,22.50
2018-10-21T00:22:10.813Z,25.13
2018-10-21T00:24:39.041Z,22.37
2018-10-21T00:27:07.563Z,26.00
2018-10-21T00:29:35.865Z,19.63
2018-10-21T00:32:04.148Z,24.50
2018-10-21T00:34:32.362Z,25.97
2018-10-21T00:37:00.612Z,26.67
2018-10-21T00:39:28.835Z,26.43
2018-10-21T00:41:57.132Z,25.50
2018-10-21T00:44:25.362Z,24.90
2018-10-21T00:46:53.585Z,24.50
2018-10-21T00:49:25.325Z,28.23
2018-10-21T00:51:53.565Z,25.10
2018-10-21T00:54:21.754Z,22.30
2018-10-21T00:56:50.966Z,20.67
2018-10-21T00:59:19.169Z,28.87
2018-10-21T01:01:47.393Z,22.13
2018-10-21T01:04:15.663Z,24.53
2018-10-21T01:06:43.789Z,28.07
2018-10-21T01:09:13.309Z,24.33
2018-10-21T01:11:42.491Z,27.47
2018-10-21T01:14:10.979Z,25.50
2018-10-21T01:16:39.258Z,26.17
2018-10-21T01:19:07.607Z,21.87
2018-10-21T01:21:36.373Z,26.07
2018-10-21T01:24:04.688Z,26.10
2018-10-21T01:26:32.880Z,24.67
2018-10-21T01:29:01.098Z,23.73
2018-10-21T01:31:29.306Z,27.27
2018-10-21T01:33:57.530Z,24.97
2018-10-21T01:36:26.124Z,22.30
2018-10-21T01:38:54.130Z,28.40
2018-10-21T01:41:22.428Z,24.07
2018-10-21T01:43:51.061Z,26.03
2018-10-21T01:46:19.372Z,22.93
2018-10-21T01:48:47.657Z,24.80
2018-10-21T01:51:15.943Z,24.17
2018-10-21T01:53:44.069Z,25.47
2018-10-21T01:56:12.353Z,25.03
2018-10-21T01:58:40.565Z,24.03
2018-10-21T02:01:08.766Z,23.53
2018-10-21T02:03:36.977Z,25.33
2018-10-21T02:06:05.282Z,25.30
2018-10-21T02:08:33.510Z,28.97
2018-10-21T02:11:01.709Z,27.87
2018-10-21T02:13:29.909Z,27.13
2018-10-21T02:15:58.117Z,27.00
2018-10-21T02:18:26.315Z,28.50
2018-10-21T02:20:54.569Z,24.03
2018-10-21T02:23:22.741Z,22.07
2018-10-21T02:25:51.074Z,27.63
2018-10-21T02:28:19.290Z,23.63
2018-10-21T02:30:47.525Z,19.80
2018-10-21T02:33:15.851Z,24.10
2018-10-21T02:35:43.960Z,23.97
2018-10-21T02:38:12.160Z,23.77
2018-10-21T02:41:56.374Z,26.87
2018-10-21T02:44:24.974Z,22.13
2018-10-21T02:46:54.484Z,24.70
2018-10-21T02:49:23.081Z,28.90
2018-10-21T02:51:56.517Z,27.47
2018-10-21T02:54:26.733Z,26.17
2018-10-21T02:56:55.062Z,28.37
2018-10-21T02:59:23.819Z,26.10
2018-10-21T03:01:52.064Z,27.30
2018-10-21T03:04:20.604Z,25.37
2018-10-21T03:06:49.227Z,26.90
2018-10-21T03:09:17.720Z,27.33
2018-10-21T03:11:45.797Z,29.40
2018-10-21T03:14:14.105Z,32.73
2018-10-21T03:16:42.467Z,26.17
2018-10-21T03:19:10.691Z,26.70
2018-10-21T03:21:38.920Z,29.87
2018-10-21T03:24:07.175Z,25.53
2018-10-21T03:26:35.385Z,25.27
2018-10-21T03:29:03.645Z,29.37
2018-10-21T03:31:31.869Z,28.90
2018-10-21T03:34:00.226Z,25.67
2018-10-21T03:36:28.293Z,30.23
2018-10-21T03:38:56.549Z,27.90
2018-10-21T03:41:24.767Z,27.57
2018-10-21T03:43:52.964Z,32.10
2018-10-21T03:46:21.181Z,31.43
2018-10-21T03:48:50.498Z,30.53
2018-10-21T03:51:18.721Z,32.80
2018-10-21T03:53:46.922Z,34.00
2018-10-21T03:56:15.141Z,32.03
2018-10-21T03:58:45.479Z,29.07
2018-10-21T04:01:13.713Z,31.13
2018-10-21T04:03:41.916Z,30.63
2018-10-21T04:06:10.129Z,35.77
2018-10-21T04:08:38.329Z,29.63
2018-10-21T04:11:06.548Z,25.93
2018-10-21T04:13:34.761Z,29.53
2018-10-21T04:16:02.984Z,30.50
2018-10-21T04:18:31.178Z,29.03
2018-10-21T04:20:59.397Z,28.13
2018-10-21T04:23:27.603Z,27.47
2018-10-21T04:25:55.880Z,31.70
2018-10-21T04:28:25.155Z,24.53
2018-10-21T04:30:53.381Z,31.33
2018-10-21T04:33:52.059Z,29.83
2018-10-21T04:36:29.089Z,34.53
2018-10-21T04:40:08.571Z,31.77
2018-10-21T04:42:40.585Z,33.50
2018-10-21T04:45:09.414Z,30.03
2018-10-21T04:47:37.681Z,33.10
2018-10-21T04:50:07.401Z,28.87
2018-10-21T04:52:35.606Z,28.40
2018-10-21T04:55:06.777Z,28.93
2018-10-21T04:57:35.685Z,28.47
2018-10-21T05:00:03.999Z,35.00
2018-10-21T05:02:32.449Z,35.10
2018-10-21T05:05:00.757Z,40.13
2018-10-21T05:07:29.043Z,28.90
2018-10-21T05:09:57.220Z,30.93
2018-10-21T05:12:25.410Z,35.93
2018-10-21T05:14:53.658Z,31.03
2018-10-21T05:17:21.871Z,35.17
2018-10-21T05:19:50.068Z,31.57
2018-10-21T05:22:21.382Z,34.53
2018-10-21T05:24:49.592Z,31.00
2018-10-21T05:27:17.810Z,31.87
2018-10-21T05:29:46.014Z,30.47
2018-10-21T05:32:14.215Z,32.80
2018-10-21T05:34:42.404Z,30.00
2018-10-21T05:37:10.638Z,30.43
2018-10-21T05:39:38.873Z,30.40
2018-10-21T05:42:07.097Z,38.20
2018-10-21T05:44:35.328Z,34.10
2018-10-21T05:47:03.613Z,31.83
2018-10-21T05:49:31.804Z,32.97
2018-10-21T05:52:00.093Z,32.00
2018-10-21T05:54:28.277Z,34.90
2018-10-21T05:56:56.502Z,30.97
2018-10-21T05:59:24.796Z,30.17
2018-10-21T06:01:52.972Z,32.73
2018-10-21T06:04:22.293Z,29.57
2018-10-21T06:06:50.482Z,30.57
2018-10-21T06:09:18.706Z,35.53
2018-10-21T06:11:46.917Z,30.20
2018-10-21T06:14:15.245Z,33.90
2018-10-21T06:16:46.929Z,31.17
2018-10-21T06:19:20.612Z,35.07
2018-10-21T06:21:48.923Z,36.30
2018-10-21T06:24:17.121Z,37.93
2018-10-21T06:26:45.328Z,37.80
2018-10-21T06:29:13.521Z,38.37
2018-10-21T06:31:41.737Z,38.40
2018-10-21T06:34:10.963Z,37.63
2018-10-21T06:36:39.299Z,38.40
2018-10-21T06:39:10.634Z,36.67
2018-10-21T06:41:39.022Z,34.80
2018-10-21T06:44:07.313Z,33.20
2018-10-21T06:46:35.629Z,34.53
2018-10-21T06:49:04.014Z,31.40
2018-10-21T06:51:32.220Z,31.60
2018-10-21T06:54:00.461Z,66.23
2018-10-21T06:56:29.176Z,33.87
2018-10-21T06:59:00.770Z,34.27
2018-10-21T07:01:29.678Z,35.97
2018-10-21T07:03:58.955Z,36.77
2018-10-21T07:06:29.028Z,40.07
2018-10-21T07:09:01.865Z,34.53
2018-10-21T07:11:30.153Z,46.40
2018-10-21T07:13:58.366Z,39.87
2018-10-21T07:16:26.644Z,40.90
2018-10-21T07:18:54.757Z,38.13
2018-10-21T07:21:23.013Z,39.60
2018-10-21T07:23:51.215Z,37.23
2018-10-21T07:26:19.508Z,46.23
2018-10-21T07:28:47.753Z,35.67
2018-10-21T07:31:16.026Z,47.57
2018-10-21T07:33:44.342Z,40.43
2018-10-21T07:36:13.485Z,39.50
2018-10-21T07:38:41.732Z,41.63
2018-10-21T07:41:13.534Z,42.63
2018-10-21T07:43:41.770Z,35.03
2018-10-21T07:46:10.063Z,38.47
2018-10-21T07:48:38.284Z,40.37
2018-10-21T07:51:06.885Z,43.80
2018-10-21T07:53:35.096Z,42.40
2018-10-21T07:56:03.490Z,45.27
2018-10-21T07:58:31.713Z,42.10
2018-10-21T08:01:00.019Z,40.17
2018-10-21T08:03:28.139Z,54.47
2018-10-21T08:06:19.814Z,40.03
2018-10-21T08:08:48.059Z,42.27
2018-10-21T08:11:16.376Z,49.13
2018-10-21T08:13:44.574Z,48.33
2018-10-21T08:16:12.877Z,52.60
2018-10-21T08:18:40.972Z,53.20
2018-10-21T08:21:09.259Z,45.47
2018-10-21T08:23:37.453Z,44.93
2018-10-21T08:26:05.969Z,42.17
2018-10-21T08:28:34.192Z,44.83
2018-10-21T08:31:02.408Z,45.23
2018-10-21T08:33:30.733Z,40.17
2018-10-21T08:35:59.045Z,43.63
2018-10-21T08:38:27.210Z,42.97
2018-10-21T08:40:55.446Z,46.97
2018-10-21T08:43:23.649Z,42.67
2018-10-21T08:45:51.892Z,43.90
2018-10-21T08:48:20.186Z,47.17
2018-10-21T08:50:48.403Z,43.77
2018-10-21T08:53:16.601Z,43.43
2018-10-21T08:55:45.087Z,41.90
2018-10-21T08:58:13.391Z,39.73
2018-10-21T09:00:41.534Z,43.70
2018-10-21T09:03:09.749Z,41.67
2018-10-21T09:05:37.958Z,48.07
2018-10-21T09:08:06.473Z,40.43
2018-10-21T09:10:34.785Z,46.60
2018-10-21T09:13:02.954Z,45.20
2018-10-21T09:15:31.171Z,38.40
2018-10-21T09:17:59.366Z,38.33
2018-10-21T09:20:27.585Z,36.63
2018-10-21T09:22:55.797Z,39.27
2018-10-21T09:25:24.037Z,37.53
2018-10-21T09:27:52.228Z,39.17
2018-10-21T09:30:20.451Z,40.10
2018-10-21T09:32:48.701Z,35.27
2018-10-21T09:35:18.104Z,37.40
2018-10-21T09:37:46.492Z,34.73
2018-10-21T09:40:17.065Z,34.33
2018-10-21T09:42:45.641Z,35.73
2018-10-21T09:45:15.384Z,38.33
2018-10-21T09:47:44.059Z,37.37
2018-10-21T09:50:12.759Z,36.27
2018-10-21T09:52:41.022Z,38.77
2018-10-21T09:55:14.789Z,34.80
2018-10-21T09:57:43.250Z,32.27
2018-10-21T10:00:11.602Z,31.90
2018-10-21T10:02:46.362Z,34.90
2018-10-21T10:05:14.613Z,32.17
2018-10-21T10:07:42.852Z,31.83
2018-10-21T10:10:13.352Z,30.57
2018-10-21T10:12:41.414Z,33.33
2018-10-21T10:15:10.185Z,32.10
2018-10-21T10:17:38.387Z,27.77
2018-10-21T10:20:07.983Z,33.40
2018-10-21T10:22:36.194Z,30.50
2018-10-21T10:25:04.659Z,26.33
2018-10-21T10:27:32.827Z,28.40
2018-10-21T10:30:01.077Z,26.27
2018-10-21T10:32:29.301Z,28.97
2018-10-21T10:34:57.537Z,26.53
2018-10-21T10:37:26.150Z,25.77
2018-10-21T10:39:54.508Z,22.17
2018-10-21T10:42:22.753Z,22.47
2018-10-21T10:44:50.898Z,21.77
2018-10-21T10:47:19.161Z,25.13
2018-10-21T10:49:47.368Z,23.40
2018-10-21T10:52:15.684Z,19.63
2018-10-21T10:54:43.865Z,21.00
2018-10-21T10:57:12.079Z,23.13
2018-10-21T10:59:40.363Z,19.10
2018-10-21T11:02:08.565Z,23.90
2018-10-21T11:04:36.868Z,21.30
2018-10-21T11:07:05.665Z,22.40
2018-10-21T11:09:33.862Z,18.67
2018-10-21T11:12:02.193Z,21.10
2018-10-21T11:14:30.459Z,18.10
2018-10-21T11:16:58.693Z,17.27
2018-10-21T11:19:27.050Z,18.87
2018-10-21T11:21:55.510Z,18.43
2018-10-21T11:24:23.684Z,17.30
2018-10-21T11:26:52.122Z,20.23
2018-10-21T11:29:22.386Z,20.97
2018-10-21T11:31:50.594Z,17.70
2018-10-21T11:34:18.846Z,19.60
2018-10-21T11:36:47.136Z,19.67
2018-10-21T11:39:15.341Z,16.73
2018-10-21T11:41:43.542Z,21.73
2018-10-21T11:44:11.841Z,15.77
2018-10-21T11:46:40.246Z,15.13
2018-10-21T11:49:08.483Z,11.90
2018-10-21T11:51:36.636Z,14.60
2018-10-21T11:54:04.917Z,11.07
2018-10-21T11:56:35.073Z,13.90
2018-10-21T11:59:03.282Z,13.03
2018-10-21T12:01:31.489Z,13.23
2018-10-21T12:03:59.752Z,12.57
2018-10-21T12:06:27.994Z,12.93
2018-10-21T12:08:56.154Z,12.40
2018-10-21T12:11:24.446Z,9.77
2018-10-21T12:13:52.666Z,15.13
2018-10-21T12:16:20.861Z,11.20
2018-10-21T12:18:49.093Z,10.77
2018-10-21T12:21:17.304Z,8.97
2018-10-21T12:23:45.525Z,10.73
2018-10-21T12:26:13.736Z,7.90
2018-10-21T12:28:41.941Z,10.00
2018-10-21T12:31:10.226Z,8.17
2018-10-21T12:33:40.452Z,6.87
2018-10-21T12:36:08.652Z,9.13
2018-10-21T12:38:36.872Z,7.77
2018-10-21T12:41:05.119Z,7.83
2018-10-21T12:43:33.325Z,9.13
2018-10-21T12:46:01.523Z,7.03
2018-10-21T12:48:29.765Z,12.67
2018-10-21T12:50:58.012Z,5.27
2018-10-21T12:53:26.264Z,5.87
2018-10-21T12:55:54.489Z,5.07
2018-10-21T12:58:22.785Z,4.57
2018-10-21T13:00:52.069Z,6.60
2018-10-21T13:03:20.304Z,5.40
2018-10-21T13:05:48.572Z,3.63
2018-10-21T13:08:16.855Z,7.00
2018-10-21T13:10:45.160Z,7.50
2018-10-21T13:13:13.401Z,8.60
2018-10-21T13:15:41.609Z,8.03
2018-10-21T13:18:09.834Z,7.30
2018-10-21T13:20:38.078Z,5.57
2018-10-21T13:23:06.290Z,4.37
2018-10-21T13:25:34.510Z,6.33
2018-10-21T13:28:02.920Z,5.90
2018-10-21T13:30:31.138Z,7.90
2018-10-21T13:32:59.433Z,6.10
2018-10-21T13:35:27.699Z,8.63
2018-10-21T13:37:55.952Z,6.50
2018-10-21T13:40:24.768Z,5.60
2018-10-21T13:42:52.770Z,5.67
2018-10-21T13:45:21.155Z,6.43
2018-10-21T13:47:49.365Z,4.27
2018-10-21T13:50:17.653Z,6.00
2018-10-21T13:52:45.907Z,6.30
2018-10-21T13:55:14.342Z,7.23
2018-10-21T13:57:42.508Z,5.43
2018-10-21T14:00:10.981Z,7.33
2018-10-21T14:02:39.332Z,4.63
2018-10-21T14:05:09.078Z,6.17
2018-10-21T14:07:37.390Z,6.07
2018-10-21T14:10:06.835Z,3.77
2018-10-21T14:12:34.993Z,6.10
2018-10-21T14:15:03.464Z,5.40
2018-10-21T14:17:31.680Z,4.87
2018-10-21T14:20:00.001Z,5.87
2018-10-21T14:22:28.312Z,6.47
2018-10-21T14:24:57.561Z,6.20
2018-10-21T14:27:25.774Z,4.80
2018-10-21T14:29:53.999Z,10.47
2018-10-21T14:35:14.493Z,6.20
2018-10-21T14:37:42.710Z,8.23
2018-10-21T14:40:12.694Z,8.07
2018-10-21T14:42:41.263Z,3.53
2018-10-21T14:45:10.943Z,7.70
2018-10-21T14:47:43.022Z,5.53
2018-10-21T14:50:12.253Z,8.90
2018-10-21T14:52:40.480Z,6.43
2018-10-21T14:55:09.826Z,4.80
2018-10-21T14:57:38.210Z,6.13
2018-10-21T15:00:08.480Z,6.40
2018-10-21T15:02:36.590Z,6.30
2018-10-21T15:05:06.885Z,7.60
2018-10-21T15:07:35.158Z,4.20
2018-10-21T15:10:03.384Z,5.30
2018-10-21T15:12:31.648Z,7.87
2018-10-21T15:14:59.856Z,4.37
2018-10-21T15:17:28.058Z,8.50
2018-10-21T15:19:56.358Z,8.50
2018-10-21T15:22:24.616Z,6.57
2018-10-21T15:24:52.828Z,4.60
2018-10-21T15:27:21.088Z,5.90
2018-10-21T15:29:49.294Z,7.10
2018-10-21T15:32:17.595Z,10.43
2018-10-21T15:34:45.839Z,4.23
2018-10-21T15:37:13.992Z,5.87
2018-10-21T15:39:42.331Z,5.30
2018-10-21T15:42:11.516Z,6.10
2018-10-21T15:44:39.798Z,8.87
2018-10-21T15:47:08.003Z,7.93
2018-10-21T15:49:36.202Z,6.27
2018-10-21T15:52:04.473Z,7.30
2018-10-21T15:54:33.191Z,5.40
2018-10-21T15:57:01.389Z,4.53
2018-10-21T15:59:29.696Z,6.60
2018-10-21T16:01:57.955Z,8.13
2018-10-21T16:04:26.130Z,5.57
2018-10-21T16:06:54.354Z,11.27
2018-10-21T16:09:22.602Z,10.50
2018-10-21T16:11:50.834Z,5.93
2018-10-21T16:14:19.120Z,6.77
2018-10-21T16:16:47.329Z,7.13
2018-10-21T16:19:15.629Z,5.70
2018-10-21T16:21:43.909Z,7.03
2018-10-21T16:24:12.226Z,7.47
2018-10-21T16:26:40.593Z,9.30
2018-10-21T16:29:08.985Z,5.90
2018-10-21T16:31:37.311Z,9.23
2018-10-21T16:34:05.741Z,12.50
2018-10-21T16:36:33.901Z,7.07
2018-10-21T16:39:02.158Z,7.93
2018-10-21T16:41:33.021Z,10.47
2018-10-21T16:44:01.230Z,13.00
2018-10-21T16:46:29.464Z,14.03
2018-10-21T16:48:57.665Z,12.57
2018-10-21T16:51:25.961Z,14.10
2018-10-21T16:53:54.142Z,11.03
2018-10-21T16:56:22.341Z,9.40
2018-10-21T16:58:50.540Z,10.20
2018-10-21T17:01:18.730Z,10.23
2018-10-21T17:03:46.965Z,11.47
2018-10-21T17:06:15.114Z,9.37
2018-10-21T17:08:43.488Z,11.77
2018-10-21T17:11:11.787Z,16.90
2018-10-21T17:13:39.945Z,17.87
2018-10-21T17:16:08.456Z,20.20
2018-10-21T17:18:36.637Z,15.83
2018-10-21T17:21:04.999Z,15.73
2018-10-21T17:23:33.409Z,18.17
2018-10-21T17:26:01.629Z,15.77
2018-10-21T17:28:29.854Z,15.27
2018-10-21T17:30:58.105Z,22.37
2018-10-21T17:33:26.293Z,11.70
2018-10-21T17:35:54.572Z,13.50
2018-10-21T17:38:22.781Z,12.70
2018-10-21T17:40:50.974Z,10.77
2018-10-21T17:43:19.237Z,13.07
2018-10-21T17:45:47.457Z,11.27
2018-10-21T17:48:15.666Z,12.87
2018-10-21T17:50:43.930Z,14.00
2018-10-21T17:53:12.173Z,15.33
2018-10-21T17:55:40.401Z,12.67
2018-10-21T17:58:08.721Z,14.47
2018-10-21T18:00:36.909Z,13.10
2018-10-21T18:03:05.334Z,10.67
2018-10-21T18:05:33.567Z,11.13
2018-10-21T18:08:01.878Z,12.70
2018-10-21T18:10:30.119Z,11.37
2018-10-21T18:12:58.622Z,12.23
2018-10-21T18:15:26.829Z,14.07
2018-10-21T18:17:55.046Z,13.33
2018-10-21T18:20:23.328Z,11.53
2018-10-21T18:22:51.517Z,9.80
2018-10-21T18:25:19.766Z,9.17
2018-10-21T18:27:47.941Z,15.93
2018-10-21T18:30:19.106Z,11.43
2018-10-21T18:32:47.300Z,15.30
2018-10-21T18:35:16.298Z,14.03
2018-10-21T18:37:44.570Z,13.67
2018-10-21T18:40:13.133Z,10.33
2018-10-21T18:42:41.692Z,11.50
2018-10-21T18:45:11.710Z,11.87
2018-10-21T18:47:40.071Z,10.03
2018-10-21T18:50:10.045Z,12.60
2018-10-21T18:52:38.278Z,11.90
2018-10-21T18:55:07.557Z,12.77
2018-10-21T18:57:35.694Z,11.53
2018-10-21T19:00:03.990Z,11.13
2018-10-21T19:02:32.209Z,13.70
2018-10-21T19:05:00.411Z,8.87
2018-10-21T19:07:28.622Z,10.43
2018-10-21T19:09:56.871Z,15.00
2018-10-21T19:12:25.065Z,14.20
2018-10-21T19:14:53.266Z,15.13
2018-10-21T19:17:21.497Z,13.63
2018-10-21T19:19:49.755Z,13.40
2018-10-21T19:22:17.979Z,15.37
2018-10-21T19:24:46.189Z,14.20
2018-10-21T19:27:14.475Z,11.53
2018-10-21T19:29:42.643Z,13.43
2018-10-21T19:32:10.889Z,19.17
2018-10-21T19:34:39.709Z,15.03
2018-10-21T19:37:08.304Z,13.37
2018-10-21T19:39:36.520Z,13.03
2018-10-21T19:42:04.845Z,12.27
2018-10-21T19:44:33.053Z,11.90
2018-10-21T19:47:01.281Z,11.53
2018-10-21T19:49:29.524Z,13.27
2018-10-21T19:51:57.780Z,16.97
2018-10-21T19:54:26.006Z,17.20
2018-10-21T19:56:54.243Z,17.27
2018-10-21T19:59:22.489Z,16.50
2018-10-21T20:01:50.768Z,20.00
2018-10-21T20:04:18.987Z,16.77
2018-10-21T20:06:47.238Z,15.83
2018-10-21T20:09:15.453Z,14.83
2018-10-21T20:11:43.677Z,15.93
2018-10-21T20:14:11.891Z,15.87
2018-10-21T20:16:40.133Z,16.30
2018-10-21T20:19:08.424Z,16.20
2018-10-21T20:21:36.583Z,15.33
2018-10-21T20:24:04.982Z,12.57
2018-10-21T20:26:33.205Z,14.47
2018-10-21T20:29:01.409Z,13.43
2018-10-21T20:31:29.633Z,13.27
2018-10-21T20:33:57.945Z,11.73
2018-10-21T20:36:26.318Z,13.33
2018-10-21T20:38:54.461Z,14.40
2018-10-21T20:41:22.652Z,12.67
2018-10-21T20:43:50.889Z,13.17
2018-10-21T20:46:19.232Z,14.30
2018-10-21T20:48:47.465Z,13.83
2018-10-21T20:51:15.745Z,14.07
2018-10-21T20:53:43.906Z,12.83
2018-10-21T20:56:12.118Z,12.23
2018-10-21T20:58:40.321Z,12.53
2018-10-21T21:01:08.578Z,14.50
2018-10-21T21:03:36.783Z,16.37
2018-10-21T21:06:05.054Z,11.97
2018-10-21T21:08:33.205Z,13.80
2018-10-21T21:11:01.397Z,12.83
2018-10-21T21:13:29.601Z,11.90
2018-10-21T21:15:57.889Z,14.63
2018-10-21T21:18:26.053Z,16.00
2018-10-21T21:20:54.289Z,13.13
2018-10-21T21:23:22.485Z,12.97
2018-10-21T21:25:50.699Z,13.37
2018-10-21T21:28:18.916Z,14.90
2018-10-21T21:30:47.113Z,12.47
2018-10-21T21:33:15.355Z,12.73
2018-10-21T21:35:43.550Z,15.57
2018-10-21T21:38:11.772Z,13.20
2018-10-21T21:40:39.990Z,12.33
2018-10-21T21:43:08.349Z,12.97
2018-10-21T21:45:36.564Z,12.40
2018-10-21T21:48:05.172Z,13.23
2018-10-21T21:50:33.335Z,13.13
2018-10-21T21:53:01.581Z,17.37
2018-10-21T21:55:29.791Z,13.17
2018-10-21T21:57:57.995Z,13.67
2018-10-21T22:00:26.212Z,11.57
2018-10-21T22:02:54.415Z,15.67
2018-10-21T22:05:22.606Z,13.87
2018-10-21T22:07:50.831Z,12.70
2018-10-21T22:10:19.204Z,12.13
2018-10-21T22:12:47.260Z,15.30
2018-10-21T22:15:15.462Z,12.83
2018-10-21T22:17:44.162Z,14.23
2018-10-21T22:20:13.391Z,13.73
2018-10-21T22:22:41.645Z,16.33
2018-10-21T22:25:10.053Z,15.47
2018-10-21T22:27:38.242Z,11.77
2018-10-21T22:30:07.751Z,14.47
2018-10-21T22:32:35.969Z,11.27
2018-10-21T22:35:04.837Z,16.07
2018-10-21T22:37:33.078Z,12.40
2018-10-21T22:40:01.370Z,13.70
2018-10-21T22:42:29.519Z,16.07
2018-10-21T22:44:57.709Z,14.60
2018-10-21T22:47:25.917Z,11.83
2018-10-21T22:49:54.128Z,12.77
2018-10-21T22:52:22.363Z,13.30
2018-10-21T22:54:50.718Z,13.70
2018-10-21T22:57:19.965Z,14.80
2018-10-21T22:59:50.104Z,14.03
2018-10-21T23:02:18.357Z,13.50
2018-10-21T23:04:47.086Z,16.13
2018-10-21T23:07:15.309Z,13.07
2018-10-21T23:09:43.517Z,13.70
2018-10-21T23:12:11.778Z,10.47
2018-10-21T23:14:39.907Z,13.20
2018-10-21T23:17:08.145Z,12.83
2018-10-21T23:19:49.619Z,10.90
2018-10-21T23:22:18.043Z,11.43
2018-10-21T23:24:46.223Z,12.87
2018-10-21T23:27:14.572Z,13.53
2018-10-21T23:29:43.588Z,12.03
2018-10-21T23:32:11.832Z,11.40
2018-10-21T23:34:40.054Z,13.47
2018-10-21T23:37:08.305Z,10.13
2018-10-21T23:39:36.508Z,11.00
2018-10-21T23:42:04.919Z,13.23
2018-10-21T23:44:33.085Z,13.33
2018-10-21T23:47:01.274Z,10.03
2018-10-21T23:49:29.505Z,13.70
2018-10-21T23:51:57.759Z,10.33
2018-10-21T23:54:25.918Z,9.93
2018-10-21T23:56:54.125Z,10.63
2018-10-21T23:59:22.324Z,11.03
